Time;durP1;ratioP1;P1;durP2;ratioP2;P2;SDS_P1;SDS_P2;PMS_P1;PMS_P2;Temp;Humidity;BMP_temperature;BMP_pressure;BME280_temperature;BME280_humidity;BME280_pressure;Samples;Min_cycle;Max_cycle;Signal;HPM_P1;HPM_P2
2022/10/20 00:02:17;;;;;;;3.60;3.27;;;;;;;;;;4942359;28;20331;-53
2022/10/20 00:04:43;;;;;;;5.63;2.60;;;;;;;;;;4918983;29;20181;-53
2022/10/20 00:07:09;;;;;;;3.47;3.10;;;;;;;;;;4943781;28;20248;-53
2022/10/20 00:09:35;;;;;;;4.13;3.30;;;;;;;;;;4942016;29;20184;-53
2022/10/20 00:12:01;;;;;;;4.57;3.17;;;;;;;;;;4942301;28;20267;-53
2022/10/20 00:14:27;;;;;;;3.80;3.33;;;;;;;;;;4943436;29;20263;-53
2022/10/20 00:16:53;;;;;;;3.90;3.60;;;;;;;;;;4940216;28;20188;-53
2022/10/20 00:19:19;;;;;;;4.20;3.50;;;;;;;;;;4942637;28;20183;-53
2022/10/20 00:21:45;;;;;;;4.17;3.77;;;;;;;;;;4943611;28;20539;-53
2022/10/20 00:24:11;;;;;;;3.57;3.27;;;;;;;;;;4940265;29;21123;-53
2022/10/20 00:26:37;;;;;;;3.87;3.30;;;;;;;;;;4925343;28;20610;-53
2022/10/20 00:29:03;;;;;;;4.83;4.33;;;;;;;;;;4939555;28;20514;-53
2022/10/20 00:31:30;;;;;;;3.97;3.30;;;;;;;;;;4940958;28;20181;-53
2022/10/20 00:33:56;;;;;;;4.23;3.83;;;;;;;;;;4942703;29;20199;-53
2022/10/20 00:36:22;;;;;;;4.07;3.67;;;;;;;;;;4941166;28;20624;-53
2022/10/20 00:38:49;;;;;;;5.67;3.97;;;;;;;;;;4943454;28;20264;-53
2022/10/20 00:41:16;;;;;;;4.20;3.33;;;;;;;;;;4945201;28;20188;-53
2022/10/20 00:43:42;;;;;;;4.10;3.70;;;;;;;;;;4925816;29;20219;-53
2022/10/20 00:46:08;;;;;;;3.43;3.10;;;;;;;;;;4941474;28;20289;-53
2022/10/20 00:48:34;;;;;;;3.27;2.97;;;;;;;;;;4966093;28;20192;-52
2022/10/20 00:51:01;;;;;;;3.37;3.17;;;;;;;;;;4928928;29;20263;-52
2022/10/20 00:53:28;;;;;;;3.87;3.57;;;;;;;;;;4931835;28;20188;-52
2022/10/20 00:55:55;;;;;;;4.57;3.47;;;;;;;;;;4939509;28;20271;-53
2022/10/20 00:58:21;;;;;;;3.67;3.37;;;;;;;;;;4921123;29;20192;-52
2022/10/20 01:00:50;;;;;;;3.83;3.30;;;;;;;;;;4924312;29;20591;-52
2022/10/20 01:03:18;;;;;;;3.63;3.33;;;;;;;;;;4943021;28;20477;-53
2022/10/20 01:05:44;;;;;;;4.63;3.60;;;;;;;;;;4940358;28;20678;-52
2022/10/20 01:08:10;;;;;;;3.57;3.27;;;;;;;;;;4943247;29;20183;-52
2022/10/20 01:10:41;;;;;;;3.43;3.13;;;;;;;;;;4941156;28;20623;-53
2022/10/20 01:13:30;;;;;;;3.67;3.33;;;;;;;;;;4934944;29;20199;-53
2022/10/20 01:16:07;;;;;;;4.00;2.93;;;;;;;;;;4932468;28;20220;-53
2022/10/20 01:18:36;;;;;;;3.27;2.97;;;;;;;;;;4941494;29;20191;-53
2022/10/20 01:21:09;;;;;;;5.63;3.40;;;;;;;;;;4923638;29;20200;-54
2022/10/20 01:23:38;;;;;;;3.63;3.33;;;;;;;;;;4925461;29;20208;-54
2022/10/20 01:26:23;;;;;;;4.07;3.33;;;;;;;;;;4922494;29;20364;-54
2022/10/20 01:29:01;;;;;;;3.57;3.23;;;;;;;;;;4939451;29;20184;-54
2022/10/20 01:31:40;;;;;;;3.50;3.20;;;;;;;;;;4940132;28;20223;-54
2022/10/20 01:34:09;;;;;;;3.27;3.07;;;;;;;;;;4938194;29;20196;-54
2022/10/20 01:36:35;;;;;;;3.20;2.87;;;;;;;;;;4936907;28;20642;-54
2022/10/20 01:39:07;;;;;;;3.40;3.10;;;;;;;;;;4940020;29;20189;-54
2022/10/20 01:41:35;;;;;;;3.50;3.10;;;;;;;;;;4940584;28;20240;-53
2022/10/20 01:44:03;;;;;;;4.83;3.43;;;;;;;;;;4940259;29;20208;-53
2022/10/20 01:46:36;;;;;;;5.07;3.57;;;;;;;;;;4923085;29;20299;-53
2022/10/20 01:49:03;;;;;;;4.33;4.03;;;;;;;;;;4941750;29;20638;-53
2022/10/20 01:51:29;;;;;;;3.30;3.00;;;;;;;;;;4940705;28;20190;-55
2022/10/20 01:53:56;;;;;;;3.27;3.03;;;;;;;;;;4928237;28;20228;-52
2022/10/20 01:56:46;;;;;;;4.40;3.50;;;;;;;;;;4945081;28;20181;-53
2022/10/20 01:59:27;;;;;;;3.93;3.63;;;;;;;;;;4943753;29;20622;-52
2022/10/20 02:02:09;;;;;;;4.07;3.67;;;;;;;;;;4943477;28;20184;-53
2022/10/20 02:04:47;;;;;;;3.87;3.57;;;;;;;;;;4942748;29;20173;-53
2022/10/20 02:07:17;;;;;;;3.57;3.23;;;;;;;;;;4945056;28;20212;-53
2022/10/20 02:09:46;;;;;;;4.73;3.73;;;;;;;;;;4945889;29;20261;-53
2022/10/20 02:12:16;;;;;;;4.33;3.87;;;;;;;;;;4930500;29;20196;-53
2022/10/20 02:14:42;;;;;;;3.60;2.93;;;;;;;;;;4944427;29;20576;-53
2022/10/20 02:17:12;;;;;;;3.10;2.90;;;;;;;;;;4944229;29;20643;-53
2022/10/20 02:19:39;;;;;;;3.67;3.37;;;;;;;;;;4943986;29;20239;-53
2022/10/20 02:22:07;;;;;;;4.40;3.30;;;;;;;;;;4943764;28;20212;-53
2022/10/20 02:24:35;;;;;;;5.67;3.87;;;;;;;;;;4947483;29;20744;-52
2022/10/20 02:27:03;;;;;;;3.73;3.30;;;;;;;;;;4944574;28;20172;-52
2022/10/20 02:29:31;;;;;;;8.33;3.17;;;;;;;;;;4936545;28;20600;-52
2022/10/20 02:31:57;;;;;;;4.00;3.70;;;;;;;;;;4941296;28;20184;-52
2022/10/20 02:34:27;;;;;;;3.67;3.37;;;;;;;;;;4928643;29;20180;-52
2022/10/20 02:36:56;;;;;;;4.80;3.47;;;;;;;;;;4951112;28;20165;-52
2022/10/20 02:39:23;;;;;;;4.27;3.87;;;;;;;;;;4953134;29;20181;-52
2022/10/20 02:41:49;;;;;;;4.43;3.87;;;;;;;;;;4936322;29;20275;-52
2022/10/20 02:44:15;;;;;;;3.63;3.33;;;;;;;;;;4946066;29;20213;-52
2022/10/20 02:46:41;;;;;;;3.80;3.50;;;;;;;;;;4927863;29;20241;-52
2022/10/20 02:49:08;;;;;;;4.40;3.60;;;;;;;;;;4944461;28;20192;-52
2022/10/20 02:51:34;;;;;;;4.03;3.30;;;;;;;;;;4943312;28;20188;-52
2022/10/20 02:54:00;;;;;;;3.87;3.57;;;;;;;;;;4943961;28;20617;-52
2022/10/20 02:56:26;;;;;;;3.80;3.13;;;;;;;;;;4943879;28;20271;-52
2022/10/20 02:58:52;;;;;;;5.03;4.53;;;;;;;;;;4927520;29;20189;-52
2022/10/20 03:01:19;;;;;;;6.67;6.17;;;;;;;;;;4945307;28;20180;-52
2022/10/20 03:03:45;;;;;;;4.00;3.60;;;;;;;;;;4928000;29;20216;-53
2022/10/20 03:06:12;;;;;;;4.03;3.63;;;;;;;;;;4929900;29;20626;-54
2022/10/20 03:08:39;;;;;;;3.70;3.40;;;;;;;;;;4940093;29;20215;-53
2022/10/20 03:11:05;;;;;;;3.50;3.20;;;;;;;;;;4944438;28;20703;-52
2022/10/20 03:13:31;;;;;;;3.67;3.37;;;;;;;;;;4940914;29;20219;-53
2022/10/20 03:15:57;;;;;;;5.47;4.10;;;;;;;;;;4945071;28;20536;-52
2022/10/20 03:18:24;;;;;;;5.93;5.37;;;;;;;;;;4942563;29;20660;-53
2022/10/20 03:20:50;;;;;;;4.00;3.20;;;;;;;;;;4943786;28;20984;-53
2022/10/20 03:23:16;;;;;;;3.03;2.83;;;;;;;;;;4941243;29;20511;-53
2022/10/20 03:25:43;;;;;;;3.70;3.40;;;;;;;;;;4944091;28;20185;-53
2022/10/20 03:28:09;;;;;;;3.50;3.17;;;;;;;;;;4944397;29;20177;-53
2022/10/20 03:30:35;;;;;;;3.33;3.03;;;;;;;;;;4940476;28;20267;-53
2022/10/20 03:33:01;;;;;;;6.20;3.33;;;;;;;;;;4940933;29;20194;-53
2022/10/20 03:35:27;;;;;;;4.97;3.50;;;;;;;;;;4926539;29;20647;-53
2022/10/20 03:37:54;;;;;;;4.00;3.70;;;;;;;;;;4924668;29;20185;-53
2022/10/20 03:40:20;;;;;;;6.23;5.83;;;;;;;;;;4940739;28;20251;-53
2022/10/20 03:42:47;;;;;;;4.10;3.70;;;;;;;;;;4943356;29;20196;-53
2022/10/20 03:45:13;;;;;;;4.20;3.90;;;;;;;;;;4942483;28;20181;-53
2022/10/20 03:47:39;;;;;;;3.90;3.60;;;;;;;;;;4941660;29;20206;-53
2022/10/20 03:50:05;;;;;;;5.00;3.93;;;;;;;;;;4935462;28;20224;-53
2022/10/20 03:52:32;;;;;;;3.87;3.57;;;;;;;;;;4927030;29;20196;-53
2022/10/20 03:54:58;;;;;;;6.00;3.47;;;;;;;;;;4942537;28;20239;-53
2022/10/20 03:57:24;;;;;;;3.80;3.40;;;;;;;;;;4944737;28;20185;-53
2022/10/20 03:59:51;;;;;;;3.83;3.30;;;;;;;;;;4941136;29;20188;-53
2022/10/20 04:02:34;;;;;;;6.20;5.73;;;;;;;;;;4940822;28;20267;-53
2022/10/20 04:05:00;;;;;;;6.07;3.97;;;;;;;;;;4942198;28;20207;-52
2022/10/20 04:07:27;;;;;;;4.10;3.63;;;;;;;;;;4925207;29;20291;-52
2022/10/20 04:09:54;;;;;;;4.30;3.80;;;;;;;;;;4940568;28;20185;-52
2022/10/20 04:12:21;;;;;;;3.97;3.47;;;;;;;;;;4927778;29;20267;-52
2022/10/20 04:14:48;;;;;;;3.57;3.27;;;;;;;;;;4939058;28;20189;-53
2022/10/20 04:17:14;;;;;;;7.27;3.80;;;;;;;;;;4935527;28;20576;-52
2022/10/20 04:19:40;;;;;;;4.50;4.17;;;;;;;;;;4944745;28;20268;-53
2022/10/20 04:22:06;;;;;;;4.37;3.93;;;;;;;;;;4926526;29;20188;-53
2022/10/20 04:24:32;;;;;;;4.83;3.57;;;;;;;;;;4939519;29;20188;-53
2022/10/20 04:26:58;;;;;;;4.27;3.87;;;;;;;;;;4942919;28;20189;-53
2022/10/20 04:29:25;;;;;;;11.87;5.00;;;;;;;;;;4940183;29;20191;-54
2022/10/20 04:31:51;;;;;;;5.07;3.67;;;;;;;;;;4917331;29;20256;-55
2022/10/20 04:34:17;;;;;;;8.47;3.80;;;;;;;;;;4938088;29;20223;-52
2022/10/20 04:36:43;;;;;;;4.73;4.33;;;;;;;;;;4933845;29;20192;-53
2022/10/20 04:39:09;;;;;;;3.70;3.40;;;;;;;;;;4946952;29;20718;-52
2022/10/20 04:41:35;;;;;;;4.30;3.63;;;;;;;;;;4953614;28;20208;-53
2022/10/20 04:44:02;;;;;;;5.93;3.70;;;;;;;;;;4930298;29;20712;-53
2022/10/20 04:46:28;;;;;;;4.00;3.60;;;;;;;;;;4942441;28;20269;-53
2022/10/20 04:48:54;;;;;;;4.10;3.57;;;;;;;;;;4924978;29;20256;-53
2022/10/20 04:51:20;;;;;;;4.70;3.60;;;;;;;;;;4948410;28;20184;-52
2022/10/20 04:53:46;;;;;;;5.17;4.03;;;;;;;;;;4954575;28;20623;-52
2022/10/20 04:56:17;;;;;;;4.70;3.57;;;;;;;;;;4950521;28;20189;-52
2022/10/20 04:58:46;;;;;;;4.43;3.13;;;;;;;;;;4932232;29;20188;-52
2022/10/20 05:01:12;;;;;;;4.10;3.73;;;;;;;;;;4941915;28;20197;-52
2022/10/20 05:03:38;;;;;;;4.00;3.70;;;;;;;;;;4942187;29;20211;-52
2022/10/20 05:06:11;;;;;;;4.03;3.23;;;;;;;;;;4949310;28;20187;-53
2022/10/20 05:08:37;;;;;;;3.60;3.30;;;;;;;;;;4946547;29;20724;-52
2022/10/20 05:11:04;;;;;;;7.77;3.33;;;;;;;;;;4936996;28;20255;-52
2022/10/20 05:13:30;;;;;;;4.10;3.67;;;;;;;;;;4926191;29;20188;-53
2022/10/20 05:15:56;;;;;;;3.93;3.13;;;;;;;;;;4950096;28;20227;-52
2022/10/20 05:18:22;;;;;;;5.13;3.50;;;;;;;;;;4950280;28;20207;-52
2022/10/20 05:20:48;;;;;;;3.67;3.37;;;;;;;;;;4948137;28;20194;-52
2022/10/20 05:23:14;;;;;;;4.50;3.70;;;;;;;;;;4946276;29;20204;-52
2022/10/20 05:25:40;;;;;;;3.83;3.50;;;;;;;;;;4943991;28;20185;-52
2022/10/20 05:28:06;;;;;;;4.07;3.67;;;;;;;;;;4942759;29;20652;-52
2022/10/20 05:30:36;;;;;;;4.60;3.57;;;;;;;;;;4944985;28;20188;-52
2022/10/20 05:33:02;;;;;;;4.20;3.70;;;;;;;;;;4941735;28;21005;-52
2022/10/20 05:35:28;;;;;;;4.53;4.13;;;;;;;;;;4922947;29;20812;-52
2022/10/20 05:37:54;;;;;;;4.90;4.40;;;;;;;;;;4934389;29;20193;-52
2022/10/20 05:40:21;;;;;;;4.50;3.97;;;;;;;;;;4949994;28;20192;-52
2022/10/20 05:42:47;;;;;;;4.00;3.70;;;;;;;;;;4950548;29;20918;-52
2022/10/20 05:45:13;;;;;;;5.37;4.97;;;;;;;;;;4947881;28;20172;-52
2022/10/20 05:47:41;;;;;;;4.67;3.90;;;;;;;;;;4949173;29;20183;-52
2022/10/20 05:50:08;;;;;;;6.17;4.40;;;;;;;;;;4931462;28;20165;-53
2022/10/20 05:52:34;;;;;;;5.67;4.50;;;;;;;;;;4950364;29;20182;-52
2022/10/20 05:55:00;;;;;;;4.10;3.70;;;;;;;;;;4951535;28;20328;-52
2022/10/20 05:57:26;;;;;;;4.53;4.10;;;;;;;;;;4949212;28;20198;-53
2022/10/20 05:59:52;;;;;;;4.60;3.70;;;;;;;;;;4950396;28;20184;-52
2022/10/20 06:02:19;;;;;;;4.33;3.83;;;;;;;;;;4950775;28;20212;-53
2022/10/20 06:04:45;;;;;;;4.50;4.10;;;;;;;;;;4951413;28;20181;-52
2022/10/20 06:07:11;;;;;;;4.33;3.93;;;;;;;;;;4945629;28;20248;-53
2022/10/20 06:09:38;;;;;;;3.73;3.43;;;;;;;;;;4930139;29;20871;-52
2022/10/20 06:12:04;;;;;;;4.13;3.73;;;;;;;;;;4945688;28;20632;-53
2022/10/20 06:14:31;;;;;;;4.17;3.77;;;;;;;;;;4948998;29;20390;-52
2022/10/20 06:16:57;;;;;;;4.30;3.93;;;;;;;;;;4949218;28;20212;-53
2022/10/20 06:19:23;;;;;;;5.33;4.30;;;;;;;;;;4947237;29;20573;-52
2022/10/20 06:21:50;;;;;;;4.90;4.27;;;;;;;;;;4932360;29;20177;-52
2022/10/20 06:24:17;;;;;;;4.50;4.10;;;;;;;;;;4949952;29;20189;-53
2022/10/20 06:26:43;;;;;;;5.60;4.40;;;;;;;;;;4948472;28;20196;-52
2022/10/20 06:29:11;;;;;;;10.07;4.87;;;;;;;;;;4962434;28;20629;-51
2022/10/20 06:31:39;;;;;;;6.40;4.10;;;;;;;;;;4955082;28;20660;-52
2022/10/20 06:34:06;;;;;;;4.97;4.47;;;;;;;;;;4949308;29;20593;-53
2022/10/20 06:36:34;;;;;;;5.00;4.50;;;;;;;;;;4949677;28;20191;-52
2022/10/20 06:39:01;;;;;;;4.93;4.50;;;;;;;;;;4952997;29;20801;-52
2022/10/20 06:41:27;;;;;;;6.17;4.13;;;;;;;;;;4935417;29;20552;-52
2022/10/20 06:43:57;;;;;;;7.67;5.57;;;;;;;;;;4953874;28;20208;-52
2022/10/20 06:46:23;;;;;;;8.07;5.13;;;;;;;;;;4959628;28;20747;-52
2022/10/20 06:48:50;;;;;;;4.60;4.17;;;;;;;;;;4953016;29;20220;-52
2022/10/20 06:51:23;;;;;;;5.53;4.97;;;;;;;;;;4935803;29;20659;-53
2022/10/20 06:53:50;;;;;;;5.73;4.90;;;;;;;;;;4935175;29;20188;-53
2022/10/20 06:56:17;;;;;;;5.57;4.77;;;;;;;;;;4954860;28;20735;-52
2022/10/20 06:58:45;;;;;;;5.17;4.67;;;;;;;;;;4948266;29;20975;-52
2022/10/20 07:01:13;;;;;;;6.83;5.30;;;;;;;;;;4956223;28;20235;-52
2022/10/20 07:03:40;;;;;;;6.03;5.43;;;;;;;;;;4927523;29;20620;-52
2022/10/20 07:06:07;;;;;;;7.80;6.07;;;;;;;;;;4939290;28;20209;-53
2022/10/20 07:08:40;;;;;;;6.50;5.90;;;;;;;;;;4947505;28;20176;-53
2022/10/20 07:11:12;;;;;;;7.80;5.43;;;;;;;;;;4928328;29;20188;-53
2022/10/20 07:13:39;;;;;;;6.90;6.17;;;;;;;;;;4934581;29;20325;-53
2022/10/20 07:16:05;;;;;;;9.70;5.87;;;;;;;;;;4948026;28;20284;-53
2022/10/20 07:18:31;;;;;;;7.87;6.30;;;;;;;;;;4942066;29;20193;-53
2022/10/20 07:21:02;;;;;;;6.53;5.43;;;;;;;;;;4942258;28;20908;-54
2022/10/20 07:23:35;;;;;;;6.80;6.17;;;;;;;;;;4943397;28;20271;-54
2022/10/20 07:26:02;;;;;;;10.30;6.80;;;;;;;;;;4931725;29;20247;-53
2022/10/20 07:28:28;;;;;;;6.90;6.20;;;;;;;;;;4952955;28;20216;-54
2022/10/20 07:30:54;;;;;;;6.43;5.77;;;;;;;;;;4949001;28;20181;-54
2022/10/20 07:33:21;;;;;;;9.10;6.70;;;;;;;;;;4930043;29;20188;-52
2022/10/20 07:35:47;;;;;;;7.87;6.10;;;;;;;;;;4946169;28;20701;-52
2022/10/20 07:38:13;;;;;;;6.93;6.23;;;;;;;;;;4947409;28;20196;-53
2022/10/20 07:40:39;;;;;;;7.40;6.57;;;;;;;;;;4939663;28;20220;-53
2022/10/20 07:43:06;;;;;;;7.27;6.43;;;;;;;;;;4931269;29;20216;-51
2022/10/20 07:45:32;;;;;;;7.23;6.20;;;;;;;;;;4931790;29;20215;-53
2022/10/20 07:48:03;;;;;;;9.17;7.57;;;;;;;;;;4949908;28;20180;-53
2022/10/20 07:50:29;;;;;;;9.10;7.77;;;;;;;;;;4942940;28;20219;-53
2022/10/20 07:52:56;;;;;;;7.23;6.53;;;;;;;;;;4932978;29;20188;-53
2022/10/20 07:55:22;;;;;;;7.33;6.63;;;;;;;;;;4928749;28;20315;-53
2022/10/20 07:57:48;;;;;;;7.57;6.77;;;;;;;;;;4946896;29;20478;-53
2022/10/20 08:00:14;;;;;;;7.17;6.47;;;;;;;;;;4926459;28;20714;-52
2022/10/20 08:02:40;;;;;;;8.37;6.80;;;;;;;;;;4932685;28;20212;-53
2022/10/20 08:05:07;;;;;;;6.93;6.20;;;;;;;;;;4948538;28;20247;-53
2022/10/20 08:07:34;;;;;;;8.70;7.30;;;;;;;;;;4942378;29;20188;-53
2022/10/20 08:10:00;;;;;;;7.50;6.43;;;;;;;;;;4946809;28;20639;-52
2022/10/20 08:12:26;;;;;;;7.97;7.27;;;;;;;;;;4947469;29;20189;-53
2022/10/20 08:14:53;;;;;;;9.93;7.33;;;;;;;;;;4947750;28;20208;-53
2022/10/20 08:17:19;;;;;;;8.83;6.07;;;;;;;;;;4931369;29;20747;-53
2022/10/20 08:19:45;;;;;;;7.73;6.73;;;;;;;;;;4929521;29;20195;-53
2022/10/20 08:22:11;;;;;;;7.00;6.30;;;;;;;;;;4930780;29;20200;-54
2022/10/20 08:24:38;;;;;;;7.50;6.77;;;;;;;;;;4938295;29;20208;-54
2022/10/20 08:27:04;;;;;;;9.73;6.70;;;;;;;;;;4932230;29;20204;-53
2022/10/20 08:29:31;;;;;;;9.33;6.93;;;;;;;;;;4935098;29;20271;-54
2022/10/20 08:32:05;;;;;;;11.50;7.23;;;;;;;;;;4937733;29;20176;-53
2022/10/20 08:34:31;;;;;;;7.80;7.00;;;;;;;;;;4941537;29;20180;-53
2022/10/20 08:36:58;;;;;;;7.80;7.00;;;;;;;;;;4929098;29;20185;-53
2022/10/20 08:39:25;;;;;;;7.50;6.80;;;;;;;;;;4948376;29;20179;-54
2022/10/20 08:41:51;;;;;;;8.60;6.60;;;;;;;;;;4948472;28;20603;-53
2022/10/20 08:44:21;;;;;;;10.57;7.10;;;;;;;;;;4945970;29;20278;-54
2022/10/20 08:46:47;;;;;;;7.10;6.40;;;;;;;;;;4946089;28;20212;-53
2022/10/20 08:49:18;;;;;;;8.33;6.87;;;;;;;;;;4946951;29;20552;-52
2022/10/20 08:51:44;;;;;;;7.97;7.17;;;;;;;;;;4924910;29;20217;-53
2022/10/20 08:54:14;;;;;;;8.10;6.20;;;;;;;;;;4926540;28;20188;-55
2022/10/20 08:56:41;;;;;;;6.27;5.70;;;;;;;;;;4929603;29;20621;-54
2022/10/20 08:59:30;;;;;;;8.00;6.50;;;;;;;;;;4911361;29;20185;-53
2022/10/20 09:01:57;;;;;;;7.50;6.37;;;;;;;;;;4907623;29;20197;-54
2022/10/20 09:04:44;;;;;;;6.87;5.97;;;;;;;;;;4928405;29;20196;-52
2022/10/20 09:07:34;;;;;;;9.33;6.80;;;;;;;;;;4928960;29;20181;-55
2022/10/20 09:10:10;;;;;;;7.83;6.57;;;;;;;;;;4908571;29;20213;-53
2022/10/20 09:12:37;;;;;;;8.10;6.80;;;;;;;;;;4910435;29;20692;-52
2022/10/20 09:15:04;;;;;;;8.70;6.43;;;;;;;;;;4927404;29;20205;-53
2022/10/20 09:17:30;;;;;;;6.47;5.87;;;;;;;;;;4918935;29;20189;-53
2022/10/20 09:19:59;;;;;;;10.27;6.97;;;;;;;;;;4924699;29;20547;-53
2022/10/20 09:22:27;;;;;;;8.00;7.13;;;;;;;;;;4908508;29;20178;-52
2022/10/20 09:24:57;;;;;;;7.63;6.90;;;;;;;;;;4930344;29;20181;-53
2022/10/20 09:27:29;;;;;;;7.13;6.53;;;;;;;;;;4910388;29;20178;-52
2022/10/20 09:29:55;;;;;;;7.80;7.07;;;;;;;;;;4931988;29;20267;-53
2022/10/20 09:32:31;;;;;;;7.20;6.50;;;;;;;;;;4931350;29;20189;-53
2022/10/20 09:35:30;;;;;;;8.60;6.40;;;;;;;;;;4930910;29;20169;-53
2022/10/20 09:37:58;;;;;;;7.20;6.47;;;;;;;;;;4880393;29;20198;-53
2022/10/20 09:40:26;;;;;;;6.87;6.27;;;;;;;;;;4913806;29;20185;-53
2022/10/20 09:42:54;;;;;;;7.23;6.57;;;;;;;;;;4930747;29;20690;-53
2022/10/20 09:45:22;;;;;;;7.30;6.60;;;;;;;;;;4929694;29;20325;-52
2022/10/20 09:47:51;;;;;;;6.63;6.03;;;;;;;;;;4931435;29;20580;-53
2022/10/20 09:50:18;;;;;;;9.23;6.60;;;;;;;;;;4919423;29;20677;-54
2022/10/20 09:52:48;;;;;;;7.53;6.00;;;;;;;;;;4930965;29;20185;-54
2022/10/20 09:55:25;;;;;;;7.63;6.90;;;;;;;;;;4922752;28;20837;-55
2022/10/20 09:57:53;;;;;;;7.53;6.77;;;;;;;;;;4934501;29;20185;-53
2022/10/20 10:00:26;;;;;;;7.40;6.50;;;;;;;;;;4936052;28;20199;-52
2022/10/20 10:03:08;;;;;;;6.83;6.23;;;;;;;;;;4949385;29;20235;-52
2022/10/20 10:05:35;;;;;;;7.07;6.37;;;;;;;;;;4949638;28;20175;-53
2022/10/20 10:08:01;;;;;;;6.60;6.00;;;;;;;;;;4948725;28;20658;-54
2022/10/20 10:10:29;;;;;;;6.43;5.73;;;;;;;;;;4932355;29;20279;-54
2022/10/20 10:12:59;;;;;;;5.33;4.83;;;;;;;;;;4949930;28;20187;-54
2022/10/20 10:15:27;;;;;;;7.23;5.83;;;;;;;;;;4948595;28;20636;-54
2022/10/20 10:17:54;;;;;;;6.17;5.53;;;;;;;;;;4935052;29;20640;-53
2022/10/20 10:20:29;;;;;;;6.13;5.57;;;;;;;;;;4939719;28;20185;-53
2022/10/20 10:23:14;;;;;;;8.93;6.37;;;;;;;;;;4943956;29;20224;-54
2022/10/20 10:25:40;;;;;;;6.80;5.77;;;;;;;;;;4946058;28;20688;-53
2022/10/20 10:28:20;;;;;;;6.20;5.60;;;;;;;;;;4950228;29;20263;-54
2022/10/20 10:30:47;;;;;;;6.73;5.77;;;;;;;;;;4950496;28;20195;-54
2022/10/20 10:33:28;;;;;;;6.03;5.50;;;;;;;;;;4946401;29;20244;-54
2022/10/20 10:35:54;;;;;;;6.97;6.23;;;;;;;;;;4938736;29;20186;-54
2022/10/20 10:38:21;;;;;;;8.57;5.53;;;;;;;;;;4940096;29;20264;-53
2022/10/20 10:41:16;;;;;;;7.40;5.73;;;;;;;;;;4945803;29;20228;-54
2022/10/20 10:43:48;;;;;;;6.60;6.00;;;;;;;;;;4938147;29;21012;-54
2022/10/20 10:46:26;;;;;;;7.20;6.50;;;;;;;;;;4935753;29;20205;-54
2022/10/20 10:49:13;;;;;;;8.53;5.47;;;;;;;;;;4951737;28;20192;-53
2022/10/20 10:51:59;;;;;;;6.93;5.90;;;;;;;;;;4959990;28;20347;-53
2022/10/20 10:54:25;;;;;;;7.00;6.30;;;;;;;;;;4924091;28;20284;-53
2022/10/20 10:56:54;;;;;;;8.47;6.33;;;;;;;;;;4925459;28;20233;-53
2022/10/20 10:59:21;;;;;;;7.50;5.73;;;;;;;;;;4945892;29;20185;-52
2022/10/20 11:01:57;;;;;;;6.83;6.13;;;;;;;;;;4933642;29;20379;-54
2022/10/20 11:04:27;;;;;;;6.80;6.20;;;;;;;;;;4925993;29;20218;-52
2022/10/20 11:07:12;;;;;;;8.87;6.30;;;;;;;;;;4948604;28;20188;-53
2022/10/20 11:09:38;;;;;;;7.10;6.43;;;;;;;;;;4927751;29;20726;-53
2022/10/20 11:12:16;;;;;;;7.03;6.33;;;;;;;;;;4942519;28;20496;-52
2022/10/20 11:15:11;;;;;;;7.57;6.27;;;;;;;;;;4947873;29;20189;-51
2022/10/20 11:17:37;;;;;;;6.80;6.20;;;;;;;;;;4936813;28;20204;-53
2022/10/20 11:20:12;;;;;;;6.73;6.13;;;;;;;;;;4949396;28;20234;-53
2022/10/20 11:22:44;;;;;;;7.03;6.33;;;;;;;;;;4951254;29;20360;-52
2022/10/20 11:25:24;;;;;;;7.53;6.73;;;;;;;;;;4938064;28;20181;-52
2022/10/20 11:27:50;;;;;;;7.63;6.07;;;;;;;;;;4952231;29;20172;-53
2022/10/20 11:30:19;;;;;;;6.20;5.70;;;;;;;;;;4940940;28;20465;-53
2022/10/20 11:32:50;;;;;;;7.40;6.43;;;;;;;;;;4949861;29;20204;-53
2022/10/20 11:35:23;;;;;;;7.20;6.50;;;;;;;;;;4960165;28;20185;-53
2022/10/20 11:37:50;;;;;;;7.57;6.87;;;;;;;;;;4918217;29;20193;-53
2022/10/20 11:40:22;;;;;;;8.13;7.33;;;;;;;;;;4946787;28;20583;-54
2022/10/20 11:42:57;;;;;;;7.60;6.10;;;;;;;;;;4949811;29;20208;-53
2022/10/20 11:45:39;;;;;;;12.13;7.40;;;;;;;;;;4948236;28;20204;-53
2022/10/20 11:48:32;;;;;;;7.07;6.37;;;;;;;;;;4945222;29;20191;-53
2022/10/20 11:51:09;;;;;;;9.10;6.63;;;;;;;;;;4927436;29;20196;-53
2022/10/20 11:53:39;;;;;;;9.07;6.83;;;;;;;;;;4937119;29;20184;-53
2022/10/20 11:56:12;;;;;;;7.73;6.93;;;;;;;;;;4936811;28;20240;-53
2022/10/20 11:58:41;;;;;;;6.80;6.03;;;;;;;;;;4930849;29;20200;-53
2022/10/20 12:01:07;;;;;;;8.90;8.10;;;;;;;;;;4938161;29;20619;-53
2022/10/20 12:03:51;;;;;;;7.97;6.77;;;;;;;;;;4950485;29;20679;-54
2022/10/20 12:06:18;;;;;;;11.23;7.37;;;;;;;;;;4939803;29;20176;-53
2022/10/20 12:08:44;;;;;;;9.07;7.83;;;;;;;;;;4934824;29;20198;-55
2022/10/20 12:11:29;;;;;;;9.83;8.47;;;;;;;;;;4950682;28;20177;-53
2022/10/20 12:13:58;;;;;;;8.43;7.63;;;;;;;;;;4934936;29;20247;-53
2022/10/20 12:16:43;;;;;;;8.93;7.97;;;;;;;;;;4951003;28;20279;-53
2022/10/20 12:19:17;;;;;;;8.10;7.40;;;;;;;;;;4951215;29;20228;-53
2022/10/20 12:21:57;;;;;;;9.97;8.60;;;;;;;;;;4949849;29;20307;-53
2022/10/20 12:24:41;;;;;;;10.63;8.20;;;;;;;;;;4950558;29;20204;-53
2022/10/20 12:27:11;;;;;;;9.00;8.07;;;;;;;;;;4951302;28;20169;-54
2022/10/20 12:29:37;;;;;;;11.47;8.60;;;;;;;;;;4945809;28;20638;-53
2022/10/20 12:32:24;;;;;;;9.27;8.27;;;;;;;;;;4924333;29;20196;-54
2022/10/20 12:34:57;;;;;;;8.83;7.97;;;;;;;;;;4950448;28;20222;-53
2022/10/20 12:37:30;;;;;;;12.93;9.30;;;;;;;;;;4959130;28;20184;-54
2022/10/20 12:40:00;;;;;;;10.73;9.17;;;;;;;;;;4948663;29;20623;-54
2022/10/20 12:42:26;;;;;;;9.10;8.10;;;;;;;;;;4932808;29;20254;-53
2022/10/20 12:44:53;;;;;;;10.80;9.10;;;;;;;;;;4950572;28;20275;-53
2022/10/20 12:47:21;;;;;;;10.03;8.17;;;;;;;;;;4946797;28;20666;-53
2022/10/20 12:49:53;;;;;;;13.50;8.87;;;;;;;;;;4931414;29;20191;-54
2022/10/20 12:52:21;;;;;;;10.43;8.53;;;;;;;;;;4948590;28;20540;-53
2022/10/20 12:54:53;;;;;;;12.47;8.53;;;;;;;;;;4952325;28;20277;-54
2022/10/20 12:57:34;;;;;;;10.20;8.83;;;;;;;;;;4950219;28;20527;-53
2022/10/20 13:00:00;;;;;;;8.97;8.17;;;;;;;;;;4930801;29;20639;-54
2022/10/20 13:02:26;;;;;;;11.53;9.33;;;;;;;;;;4946592;28;20279;-54
2022/10/20 13:04:56;;;;;;;10.77;9.67;;;;;;;;;;4950313;28;20655;-54
2022/10/20 13:07:41;;;;;;;11.23;9.47;;;;;;;;;;4954670;28;20176;-52
2022/10/20 13:10:26;;;;;;;11.43;9.23;;;;;;;;;;4933308;28;20335;-54
2022/10/20 13:12:57;;;;;;;10.60;8.93;;;;;;;;;;4950115;29;20514;-54
2022/10/20 13:15:25;;;;;;;10.53;9.53;;;;;;;;;;4949283;28;20173;-53
2022/10/20 13:18:11;;;;;;;12.87;9.33;;;;;;;;;;4909470;29;20211;-53
2022/10/20 13:20:53;;;;;;;10.73;9.17;;;;;;;;;;4938000;28;20224;-53
2022/10/20 13:23:25;;;;;;;13.73;11.23;;;;;;;;;;4939718;29;20209;-53
2022/10/20 13:25:52;;;;;;;12.93;10.93;;;;;;;;;;4944718;28;20188;-54
2022/10/20 13:28:21;;;;;;;11.33;10.23;;;;;;;;;;4929532;29;20223;-53
2022/10/20 13:31:06;;;;;;;12.70;10.50;;;;;;;;;;4929084;29;20185;-53
2022/10/20 13:33:42;;;;;;;10.80;9.80;;;;;;;;;;4938187;29;20722;-54
2022/10/20 13:36:19;;;;;;;13.63;11.00;;;;;;;;;;4946649;28;20283;-54
2022/10/20 13:38:51;;;;;;;9.63;8.73;;;;;;;;;;4929009;29;20214;-54
2022/10/20 13:41:20;;;;;;;12.83;10.13;;;;;;;;;;4929383;29;20188;-54
2022/10/20 13:43:52;;;;;;;10.63;9.53;;;;;;;;;;4928134;29;20255;-53
2022/10/20 13:46:18;;;;;;;10.53;9.43;;;;;;;;;;4945176;28;20261;-54
2022/10/20 13:49:00;;;;;;;9.97;9.07;;;;;;;;;;4924476;29;20601;-54
2022/10/20 13:51:28;;;;;;;10.60;9.37;;;;;;;;;;4945378;28;20254;-54
2022/10/20 13:53:57;;;;;;;10.40;9.30;;;;;;;;;;4918094;29;20205;-54
2022/10/20 13:56:35;;;;;;;11.17;10.13;;;;;;;;;;4944457;28;20535;-54
2022/10/20 13:59:05;;;;;;;13.23;10.67;;;;;;;;;;4944659;29;20243;-53
2022/10/20 14:01:33;;;;;;;10.07;9.10;;;;;;;;;;4944189;28;20188;-54
2022/10/20 14:04:00;;;;;;;11.00;9.13;;;;;;;;;;4906811;29;20252;-54
2022/10/20 14:06:37;;;;;;;11.00;9.27;;;;;;;;;;4916802;29;20188;-55
2022/10/20 14:09:18;;;;;;;10.57;9.50;;;;;;;;;;4925069;29;20192;-53
2022/10/20 14:11:47;;;;;;;10.63;9.73;;;;;;;;;;4946016;29;20287;-53
2022/10/20 14:14:14;;;;;;;11.73;10.53;;;;;;;;;;4946250;28;20199;-53
2022/10/20 14:16:46;;;;;;;13.50;10.20;;;;;;;;;;4945093;29;20195;-53
2022/10/20 14:19:13;;;;;;;13.17;9.83;;;;;;;;;;4924295;29;20663;-53
2022/10/20 14:21:40;;;;;;;10.63;9.53;;;;;;;;;;4928259;29;20184;-54
2022/10/20 14:24:06;;;;;;;13.23;9.57;;;;;;;;;;4942605;28;20220;-54
2022/10/20 14:26:33;;;;;;;9.80;8.90;;;;;;;;;;4926552;29;20192;-54
2022/10/20 14:29:00;;;;;;;10.43;8.90;;;;;;;;;;4937924;28;20208;-55
2022/10/20 14:31:27;;;;;;;10.50;9.50;;;;;;;;;;4938594;28;20181;-54
2022/10/20 14:33:53;;;;;;;10.67;9.40;;;;;;;;;;4943735;28;20193;-53
2022/10/20 14:36:24;;;;;;;11.50;9.20;;;;;;;;;;4927188;29;20247;-53
2022/10/20 14:38:52;;;;;;;11.10;8.93;;;;;;;;;;4925638;28;20324;-54
2022/10/20 14:41:28;;;;;;;11.73;9.60;;;;;;;;;;4942026;29;20193;-53
2022/10/20 14:43:56;;;;;;;9.47;8.57;;;;;;;;;;4938902;28;20200;-54
2022/10/20 14:46:34;;;;;;;10.63;8.57;;;;;;;;;;4940123;28;20208;-53
2022/10/20 14:49:00;;;;;;;10.40;8.87;;;;;;;;;;4919475;29;20259;-54
2022/10/20 14:51:28;;;;;;;10.33;9.23;;;;;;;;;;4941603;28;20585;-54
2022/10/20 14:54:14;;;;;;;13.33;10.03;;;;;;;;;;4940212;28;20211;-54
2022/10/20 14:56:51;;;;;;;8.97;8.17;;;;;;;;;;4920521;28;20325;-54